createdAt,value
2024-05-09T00:02:04.536Z,1.20
2024-05-09T00:05:10.934Z,0.90
2024-05-09T00:08:15.317Z,1.02
2024-05-09T00:11:20.716Z,0.93
2024-05-09T00:14:23.831Z,1.23
2024-05-09T00:17:28.276Z,0.90
2024-05-09T00:20:38.023Z,0.93
2024-05-09T00:23:44.228Z,1.00
2024-05-09T00:26:47.866Z,1.00
2024-05-09T00:29:51.436Z,1.00
2024-05-09T00:32:54.503Z,0.97
2024-05-09T00:35:58.062Z,0.80
2024-05-09T00:39:01.721Z,0.95
2024-05-09T00:42:05.451Z,1.00
2024-05-09T00:45:08.329Z,1.00
2024-05-09T00:48:17.557Z,1.00
2024-05-09T00:51:23.559Z,1.00
2024-05-09T00:54:27.606Z,1.00
2024-05-09T00:57:30.716Z,0.90
2024-05-09T01:00:39.109Z,1.05
2024-05-09T01:03:45.934Z,0.90
2024-05-09T01:06:50.155Z,0.90
2024-05-09T01:09:53.689Z,1.05
2024-05-09T01:12:57.155Z,0.90
2024-05-09T01:16:01.321Z,0.90
2024-05-09T01:19:09.931Z,1.00
2024-05-09T01:22:13.435Z,0.82
2024-05-09T01:25:16.593Z,1.08
2024-05-09T01:28:20.502Z,0.95
2024-05-09T01:31:23.960Z,1.08
2024-05-09T01:34:27.514Z,0.70
2024-05-09T01:37:31.117Z,1.00
2024-05-09T01:40:38.647Z,0.90
2024-05-09T01:43:45.495Z,0.95
2024-05-09T01:46:48.747Z,0.98
2024-05-09T01:49:52.491Z,0.80
2024-05-09T01:52:56.224Z,0.93
2024-05-09T01:55:59.823Z,0.90
2024-05-09T01:59:03.332Z,0.85
2024-05-09T02:02:07.807Z,0.90
2024-05-09T02:05:11.829Z,1.07
2024-05-09T02:08:16.760Z,0.73
2024-05-09T02:11:20.547Z,0.90
2024-05-09T02:14:24.286Z,0.90
2024-05-09T02:17:28.040Z,1.00
2024-05-09T02:20:36.245Z,1.07
2024-05-09T02:23:40.566Z,0.90
2024-05-09T02:26:44.034Z,0.90
2024-05-09T02:29:47.576Z,0.80
2024-05-09T02:32:51.229Z,0.85
2024-05-09T02:35:54.891Z,0.80
2024-05-09T02:38:58.376Z,0.80
2024-05-09T02:42:01.783Z,1.00
2024-05-09T02:45:05.703Z,1.00
2024-05-09T02:48:13.482Z,0.80
2024-05-09T02:51:17.756Z,0.87
2024-05-09T02:54:21.231Z,0.80
2024-05-09T02:57:24.902Z,0.90
2024-05-09T03:00:36.678Z,0.80
2024-05-09T03:03:45.699Z,0.90
2024-05-09T03:06:50.230Z,0.80
2024-05-09T03:09:53.715Z,0.90
2024-05-09T03:12:57.452Z,0.82
2024-05-09T03:16:00.954Z,0.88
2024-05-09T03:19:04.876Z,0.93
2024-05-09T03:22:08.457Z,0.90
2024-05-09T03:25:12.622Z,1.00
2024-05-09T03:28:16.117Z,0.80
2024-05-09T03:31:19.789Z,0.80
2024-05-09T03:34:23.441Z,0.85
2024-05-09T03:37:27.387Z,0.70
2024-05-09T03:40:31.490Z,1.00
2024-05-09T03:43:35.438Z,0.88
2024-05-09T03:46:39.937Z,0.85
2024-05-09T03:49:43.384Z,0.90
2024-05-09T03:52:46.976Z,0.80
2024-05-09T03:55:50.588Z,0.80
2024-05-09T03:58:55.639Z,0.80
2024-05-09T04:01:59.773Z,0.73
2024-05-09T04:05:03.347Z,0.70
2024-05-09T04:08:07.136Z,0.80
2024-05-09T04:11:10.649Z,1.10
2024-05-09T04:14:14.456Z,1.00
2024-05-09T04:17:17.933Z,0.70
2024-05-09T04:20:32.594Z,0.80
2024-05-09T04:23:41.577Z,0.80
2024-05-09T04:26:45.032Z,0.70
2024-05-09T04:29:48.528Z,0.95
2024-05-09T04:32:52.137Z,0.80
2024-05-09T04:35:55.747Z,0.60
2024-05-09T04:38:59.302Z,0.80
2024-05-09T04:42:02.797Z,0.90
2024-05-09T04:45:06.557Z,0.90
2024-05-09T04:48:10.323Z,0.85
2024-05-09T04:51:14.034Z,0.80
2024-05-09T04:54:29.817Z,0.87
2024-05-09T04:57:39.343Z,0.80
2024-05-09T05:00:42.835Z,0.90
2024-05-09T05:03:46.672Z,0.90
2024-05-09T05:06:50.303Z,1.30
2024-05-09T05:09:53.324Z,1.60
2024-05-09T05:13:15.623Z,1.70
2024-05-09T05:16:19.056Z,2.03
2024-05-09T05:19:22.669Z,1.52
2024-05-09T05:22:26.331Z,1.88
2024-05-09T05:25:29.292Z,1.80
2024-05-09T05:28:33.312Z,1.92
2024-05-09T05:31:36.872Z,2.20
2024-05-09T05:34:40.760Z,1.75
2024-05-09T05:37:44.703Z,1.75
2024-05-09T05:40:48.541Z,1.97
2024-05-09T05:43:52.340Z,1.80
2024-05-09T05:46:57.247Z,1.70
2024-05-09T05:50:20.474Z,1.73
2024-05-09T05:53:43.092Z,1.90
2024-05-09T05:56:52.074Z,1.60
2024-05-09T05:59:58.490Z,1.65
2024-05-09T06:03:02.972Z,1.55
2024-05-09T06:06:08.056Z,1.40
2024-05-09T06:09:12.681Z,1.70
2024-05-09T06:12:18.742Z,1.77
2024-05-09T06:15:22.783Z,1.40
2024-05-09T06:18:27.850Z,1.60
2024-05-09T06:21:31.721Z,1.52
2024-05-09T06:24:36.200Z,1.60
2024-05-09T06:27:41.088Z,1.60
2024-05-09T06:30:50.391Z,1.95
2024-05-09T06:33:58.020Z,1.63
2024-05-09T06:37:07.843Z,1.73
2024-05-09T06:40:17.468Z,1.52
2024-05-09T06:43:22.300Z,1.80
2024-05-09T06:46:26.821Z,1.55
2024-05-09T06:49:32.923Z,1.63
2024-05-09T06:52:37.025Z,1.27
2024-05-09T06:55:41.096Z,1.40
2024-05-09T06:58:45.145Z,1.80
2024-05-09T07:01:48.760Z,1.67
2024-05-09T07:04:52.943Z,1.70
2024-05-09T07:07:56.841Z,1.80
2024-05-09T07:11:00.986Z,1.70
2024-05-09T07:14:04.851Z,1.80
2024-05-09T07:17:08.756Z,1.70
2024-05-09T07:20:23.004Z,1.73
2024-05-09T07:23:31.503Z,1.70
2024-05-09T07:26:35.246Z,1.60
2024-05-09T07:29:38.961Z,1.40
2024-05-09T07:32:45.262Z,1.52
2024-05-09T07:35:49.173Z,1.80
2024-05-09T07:38:53.426Z,1.60
2024-05-09T07:41:59.447Z,1.67
2024-05-09T07:45:21.309Z,1.80
2024-05-09T07:50:00.306Z,1.67
2024-05-09T07:53:20.943Z,1.90
2024-05-09T07:55:15.882Z,1.48
2024-05-09T07:58:19.691Z,1.70
2024-05-09T08:01:28.793Z,1.60
2024-05-09T08:04:36.843Z,1.60
2024-05-09T08:07:48.457Z,1.80
2024-05-09T08:10:51.769Z,1.85
2024-05-09T08:13:56.740Z,1.95
2024-05-09T08:16:59.836Z,1.70
2024-05-09T08:20:05.658Z,2.00
2024-05-09T08:23:08.840Z,1.73
2024-05-09T08:26:15.494Z,1.75
2024-05-09T08:29:20.169Z,1.60
2024-05-09T08:32:27.574Z,1.90
2024-05-09T08:35:33.314Z,1.60
2024-05-09T08:38:36.984Z,1.80
2024-05-09T08:41:42.893Z,1.60
2024-05-09T08:44:51.449Z,1.73
2024-05-09T08:48:00.523Z,1.60
2024-05-09T08:51:04.617Z,1.80
2024-05-09T08:54:08.359Z,2.88
2024-05-09T08:57:15.504Z,2.10
2024-05-09T09:00:29.703Z,2.22
2024-05-09T09:03:41.662Z,1.90
2024-05-09T09:06:46.592Z,2.35
2024-05-09T09:09:50.782Z,2.22
2024-05-09T09:12:58.092Z,2.42
2024-05-09T09:16:03.274Z,1.90
2024-05-09T09:19:07.351Z,2.07
2024-05-09T09:22:11.199Z,1.63
2024-05-09T09:25:14.393Z,2.25
2024-05-09T09:28:18.349Z,1.90
2024-05-09T09:31:22.510Z,1.90
2024-05-09T09:34:28.634Z,1.70
2024-05-09T09:37:32.817Z,2.03
2024-05-09T09:40:42.826Z,2.40
2024-05-09T09:43:51.447Z,1.80
2024-05-09T09:46:57.018Z,2.50
2024-05-09T09:50:03.110Z,2.40
2024-05-09T09:53:08.138Z,3.00
2024-05-09T09:56:12.290Z,6.20
2024-05-09T09:59:16.348Z,4.53
2024-05-09T10:02:21.555Z,3.60
2024-05-09T10:05:26.144Z,2.83
2024-05-09T10:08:30.700Z,2.30
2024-05-09T10:11:41.870Z,2.60
2024-05-09T10:14:51.538Z,2.15
2024-05-09T10:18:07.347Z,2.50
2024-05-09T10:21:19.159Z,2.70
2024-05-09T10:24:25.147Z,2.22
2024-05-09T10:27:29.974Z,2.15
2024-05-09T10:30:36.044Z,2.33
2024-05-09T10:33:51.854Z,2.28
2024-05-09T10:36:56.437Z,2.20
2024-05-09T10:40:01.225Z,1.80
2024-05-09T10:43:06.601Z,1.95
2024-05-09T10:46:13.207Z,2.03
2024-05-09T10:49:43.397Z,2.10
2024-05-09T10:52:47.759Z,2.17
2024-05-09T10:56:17.343Z,1.73
2024-05-09T10:59:23.976Z,2.25
2024-05-09T11:02:28.731Z,2.40
2024-05-09T11:05:35.084Z,2.92
2024-05-09T11:08:40.870Z,2.53
2024-05-09T11:11:44.855Z,2.60
2024-05-09T11:14:56.400Z,2.50
2024-05-09T11:18:00.326Z,2.70
2024-05-09T11:21:14.618Z,2.47
2024-05-09T11:24:19.170Z,2.47
2024-05-09T11:27:23.910Z,2.22
2024-05-09T11:30:32.004Z,2.60
2024-05-09T11:33:41.189Z,2.53
2024-05-09T11:36:45.237Z,2.75
2024-05-09T11:39:49.080Z,2.53
2024-05-09T11:42:53.416Z,2.35
2024-05-09T11:45:58.186Z,2.13
2024-05-09T11:49:02.304Z,2.17
2024-05-09T11:52:06.111Z,2.13
2024-05-09T11:55:11.644Z,2.43
2024-05-09T11:58:18.234Z,2.72
2024-05-09T12:01:26.932Z,2.17
2024-05-09T12:04:31.205Z,2.13
2024-05-09T12:07:38.798Z,2.30
2024-05-09T12:10:43.566Z,2.50
2024-05-09T12:13:47.400Z,2.40
2024-05-09T12:16:51.060Z,2.45
2024-05-09T12:19:55.704Z,2.70
2024-05-09T12:22:59.342Z,2.60
2024-05-09T12:26:03.824Z,2.47
2024-05-09T12:29:08.081Z,2.55
2024-05-09T12:32:11.715Z,2.58
2024-05-09T12:35:15.803Z,2.25
2024-05-09T12:38:19.000Z,2.28
2024-05-09T12:41:22.726Z,2.67
2024-05-09T12:44:26.218Z,2.47
2024-05-09T12:47:32.255Z,2.30
2024-05-09T12:50:37.193Z,2.40
2024-05-09T12:53:40.442Z,2.30
2024-05-09T12:56:44.023Z,2.17
2024-05-09T12:59:48.201Z,1.80
2024-05-09T13:02:55.276Z,2.30
2024-05-09T13:06:00.022Z,2.10
2024-05-09T13:09:04.310Z,2.33
2024-05-09T13:12:08.510Z,2.27
2024-05-09T13:15:14.457Z,2.50
2024-05-09T13:18:18.284Z,2.50
2024-05-09T13:21:22.643Z,2.60
2024-05-09T13:24:27.530Z,2.00
2024-05-09T13:27:30.626Z,2.30
2024-05-09T13:30:39.750Z,2.10
2024-05-09T13:33:48.193Z,2.80
2024-05-09T13:36:53.163Z,2.15
2024-05-09T13:39:57.637Z,2.30
2024-05-09T13:43:02.469Z,2.70
2024-05-09T13:46:06.371Z,2.10
2024-05-09T13:49:12.588Z,2.20
2024-05-09T13:52:16.459Z,2.97
2024-05-09T13:55:20.046Z,2.17
2024-05-09T13:58:24.122Z,2.10
2024-05-09T14:01:29.274Z,2.42
2024-05-09T14:04:33.073Z,2.70
2024-05-09T14:07:36.877Z,2.20
2024-05-09T14:10:44.554Z,2.30
2024-05-09T14:13:49.730Z,2.20
2024-05-09T14:16:53.403Z,2.45
2024-05-09T14:19:57.052Z,2.33
2024-05-09T14:23:01.239Z,2.13
2024-05-09T14:26:07.015Z,2.05
2024-05-09T14:29:10.739Z,2.23
2024-05-09T14:32:15.409Z,2.03
2024-05-09T14:35:19.008Z,2.15
2024-05-09T14:38:23.506Z,2.00
2024-05-09T14:41:27.062Z,2.20
2024-05-09T14:44:31.350Z,2.17
2024-05-09T14:47:35.306Z,2.17
2024-05-09T14:50:40.569Z,2.22
2024-05-09T14:53:44.551Z,1.90
2024-05-09T14:56:48.171Z,1.92
2024-05-09T14:59:51.852Z,1.90
2024-05-09T15:02:55.578Z,1.95
2024-05-09T15:05:59.422Z,2.10
2024-05-09T15:09:04.085Z,1.98
2024-05-09T15:12:09.783Z,2.28
2024-05-09T15:15:12.845Z,2.03
2024-05-09T15:18:17.152Z,2.10
2024-05-09T15:21:21.069Z,1.80
2024-05-09T15:24:24.579Z,2.13
2024-05-09T15:27:28.358Z,1.80
2024-05-09T15:30:33.687Z,2.30
2024-05-09T15:33:38.621Z,1.90
2024-05-09T15:36:43.293Z,2.00
2024-05-09T15:39:47.181Z,2.22
2024-05-09T15:42:50.714Z,2.17
2024-05-09T15:45:54.583Z,1.97
2024-05-09T15:48:58.495Z,7.15
2024-05-09T15:52:02.335Z,4.70
2024-05-09T15:55:06.943Z,3.63
2024-05-09T15:58:11.323Z,3.88
2024-05-09T16:01:15.538Z,3.37
2024-05-09T16:04:19.384Z,3.60
2024-05-09T16:07:23.234Z,3.75
2024-05-09T16:10:32.356Z,3.97
2024-05-09T16:13:37.783Z,3.88
2024-05-09T16:16:41.475Z,3.33
2024-05-09T16:19:45.342Z,3.88
2024-05-09T16:22:48.298Z,3.60
2024-05-09T16:25:52.174Z,3.17
2024-05-09T16:28:55.528Z,3.80
2024-05-09T16:31:59.113Z,3.53
2024-05-09T16:35:02.904Z,3.38
2024-05-09T16:38:06.766Z,3.63
2024-05-09T16:41:10.369Z,3.22
2024-05-09T16:44:14.062Z,3.65
2024-05-09T16:47:17.799Z,3.37
2024-05-09T16:50:28.761Z,3.50
2024-05-09T16:53:36.039Z,3.35
2024-05-09T16:56:39.655Z,2.75
2024-05-09T16:59:43.212Z,3.35
2024-05-09T17:02:46.780Z,3.17
2024-05-09T17:05:50.851Z,3.08
2024-05-09T17:08:55.609Z,2.97
2024-05-09T17:12:02.523Z,3.30
2024-05-09T17:15:06.150Z,3.15
2024-05-09T17:18:10.478Z,3.77
2024-05-09T17:21:15.242Z,3.00
2024-05-09T17:24:18.748Z,2.65
2024-05-09T17:27:22.451Z,2.78
2024-05-09T17:30:32.401Z,2.95
2024-05-09T17:33:39.841Z,2.83
2024-05-09T17:36:43.563Z,3.17
2024-05-09T17:39:46.723Z,2.92
2024-05-09T17:42:50.386Z,2.70
2024-05-09T17:45:54.123Z,2.53
2024-05-09T17:49:00.428Z,2.50
2024-05-09T17:52:04.795Z,2.78
2024-05-09T17:55:08.476Z,2.33
2024-05-09T17:58:13.007Z,2.67
2024-05-09T18:01:16.093Z,2.20
2024-05-09T18:04:20.784Z,2.63
2024-05-09T18:07:24.475Z,2.85
2024-05-09T18:10:35.214Z,2.67
2024-05-09T18:13:42.476Z,2.50
2024-05-09T18:16:46.164Z,2.78
2024-05-09T18:19:49.952Z,2.87
2024-05-09T18:22:53.742Z,2.35
2024-05-09T18:25:57.436Z,2.45
2024-05-09T18:29:01.049Z,3.15
2024-05-09T18:32:05.077Z,2.35
2024-05-09T18:35:09.559Z,2.43
2024-05-09T18:38:14.248Z,3.05
2024-05-09T18:41:20.885Z,2.60
2024-05-09T18:44:25.135Z,2.58
2024-05-09T18:47:34.497Z,2.50
2024-05-09T18:50:40.971Z,2.80
2024-05-09T18:53:46.397Z,2.33
2024-05-09T18:56:50.522Z,2.22
2024-05-09T18:59:54.982Z,2.20
2024-05-09T19:03:00.339Z,2.90
2024-05-09T19:06:06.532Z,2.60
2024-05-09T19:09:11.642Z,2.47
2024-05-09T19:12:18.639Z,2.72
2024-05-09T19:15:24.412Z,2.58
2024-05-09T19:18:31.198Z,2.40
2024-05-09T19:21:37.956Z,2.10
2024-05-09T19:24:44.991Z,2.70
2024-05-09T19:27:52.468Z,2.35
2024-05-09T19:30:57.994Z,2.25
2024-05-09T19:34:05.181Z,2.38
2024-05-09T19:37:10.904Z,2.50
2024-05-09T19:40:24.564Z,2.60
2024-05-09T19:43:36.162Z,2.40
2024-05-09T19:46:41.775Z,2.28
2024-05-09T19:49:46.097Z,2.25
2024-05-09T19:52:52.381Z,2.50
2024-05-09T19:55:59.377Z,2.53
2024-05-09T19:59:04.939Z,2.75
2024-05-09T20:02:10.083Z,2.00
2024-05-09T20:05:16.493Z,2.40
2024-05-09T20:08:20.790Z,2.40
2024-05-09T20:11:28.449Z,2.22
2024-05-09T20:14:33.152Z,2.40
2024-05-09T20:17:39.530Z,2.30
2024-05-09T20:20:46.864Z,2.53
2024-05-09T20:23:52.415Z,2.00
2024-05-09T20:26:57.838Z,2.42
2024-05-09T20:30:08.069Z,2.35
2024-05-09T20:33:16.825Z,2.30
2024-05-09T20:36:20.989Z,2.38
2024-05-09T20:39:26.049Z,2.13
2024-05-09T20:42:32.199Z,2.40
2024-05-09T20:45:37.549Z,2.28
2024-05-09T20:48:41.119Z,2.35
2024-05-09T20:51:44.847Z,2.30
2024-05-09T20:54:48.432Z,2.47
2024-05-09T20:57:52.432Z,2.88
2024-05-09T21:00:56.090Z,2.75
2024-05-09T21:04:00.299Z,2.20
2024-05-09T21:07:04.364Z,2.42
2024-05-09T21:10:15.497Z,2.27
2024-05-09T21:13:23.204Z,2.35
2024-05-09T21:16:26.837Z,1.95
2024-05-09T21:19:30.319Z,2.20
2024-05-09T21:22:34.103Z,2.22
2024-05-09T21:25:37.945Z,1.93
2024-05-09T21:28:41.308Z,2.20
2024-05-09T21:31:44.901Z,2.35
2024-05-09T21:34:48.433Z,2.00
2024-05-09T21:37:51.909Z,2.50
2024-05-09T21:40:56.667Z,2.17
2024-05-09T21:44:00.220Z,2.33
2024-05-09T21:47:03.288Z,2.13
2024-05-09T21:50:07.849Z,1.90
2024-05-09T21:53:12.636Z,2.30
2024-05-09T21:56:16.693Z,2.10
2024-05-09T21:59:20.278Z,2.10
2024-05-09T22:02:23.965Z,2.15
2024-05-09T22:05:27.567Z,2.10
2024-05-09T22:08:31.360Z,2.17
2024-05-09T22:11:35.094Z,1.70
2024-05-09T22:14:38.658Z,2.08
2024-05-09T22:17:42.342Z,1.90
2024-05-09T22:20:47.162Z,2.00
2024-05-09T22:23:50.637Z,2.30
2024-05-09T22:26:55.322Z,1.77
2024-05-09T22:29:58.848Z,2.10
2024-05-09T22:33:02.569Z,2.10
2024-05-09T22:36:08.910Z,2.03
2024-05-09T22:39:11.913Z,1.85
2024-05-09T22:42:15.495Z,1.90
2024-05-09T22:45:18.958Z,2.00
2024-05-09T22:48:24.261Z,1.80
2024-05-09T22:51:28.319Z,1.88
2024-05-09T22:54:31.763Z,2.00
2024-05-09T22:57:35.304Z,1.80
2024-05-09T23:00:38.972Z,1.83
2024-05-09T23:03:42.744Z,1.70
2024-05-09T23:06:46.363Z,1.75
2024-05-09T23:09:50.110Z,1.88
2024-05-09T23:12:53.622Z,1.93
2024-05-09T23:15:57.300Z,1.75
2024-05-09T23:19:00.257Z,1.80
2024-05-09T23:22:04.175Z,1.92
2024-05-09T23:25:07.831Z,2.13
2024-05-09T23:28:12.376Z,1.60
2024-05-09T23:31:16.186Z,1.40
2024-05-09T23:34:19.273Z,2.00
2024-05-09T23:37:22.970Z,1.88
2024-05-09T23:40:35.075Z,1.77
2024-05-09T23:43:42.720Z,1.73
2024-05-09T23:46:46.242Z,1.95
2024-05-09T23:49:49.801Z,1.70
2024-05-09T23:52:53.546Z,1.90
2024-05-09T23:55:57.011Z,1.73
2024-05-09T23:59:00.485Z,2.00
